Time;durP1;ratioP1;P1;durP2;ratioP2;P2;SDS_P1;SDS_P2;PMS_P1;PMS_P2;Temp;Humidity;BMP_temperature;BMP_pressure;BME280_temperature;BME280_humidity;BME280_pressure;Samples;Min_cycle;Max_cycle;Signal;HPM_P1;HPM_P2
2022/12/07 00:01:22;;;;;;;9.43;4.78;;;21.90;45.30;;;20.31;50.38;95805.75;4925252;28;20713;-61
2022/12/07 00:03:52;;;;;;;7.07;4.13;;;21.90;45.50;;;20.29;49.83;95800.66;4901527;28;20847;-61
2022/12/07 00:06:19;;;;;;;9.70;4.93;;;22.00;45.20;;;20.29;49.96;95795.31;4968995;28;20552;-60
2022/12/07 00:08:45;;;;;;;8.85;4.28;;;22.00;45.50;;;20.29;49.86;95794.50;4947451;28;20048;-59
2022/12/07 00:11:19;;;;;;;9.27;4.35;;;22.00;45.40;;;20.29;50.29;95802.53;4966791;28;20021;-60
2022/12/07 00:13:45;;;;;;;8.32;3.97;;;22.00;45.50;;;20.30;49.79;95796.13;4948277;28;20123;-60
2022/12/07 00:16:16;;;;;;;8.65;4.93;;;22.00;45.50;;;20.29;49.57;95792.66;4963604;28;20048;-60
2022/12/07 00:18:42;;;;;;;8.50;4.43;;;21.90;45.40;;;20.29;49.40;95789.16;4963402;28;20029;-60
2022/12/07 00:21:27;;;;;;;8.23;4.30;;;21.90;45.40;;;20.27;50.44;95786.75;4947272;28;20666;-61
2022/12/07 00:23:54;;;;;;;8.98;4.97;;;21.90;45.50;;;20.28;48.97;95787.56;4964008;28;20033;-59
2022/12/07 00:26:34;;;;;;;7.82;4.35;;;21.90;45.60;;;20.28;50.78;95788.38;4945210;28;20037;-59
2022/12/07 00:29:03;;;;;;;7.97;4.45;;;21.90;45.50;;;20.27;49.83;95781.41;4944738;28;20029;-59
2022/12/07 00:31:33;;;;;;;7.35;3.97;;;21.90;45.60;;;20.26;49.23;95784.34;4963872;28;20123;-59
2022/12/07 00:33:59;;;;;;;6.60;4.13;;;21.90;45.60;;;20.28;49.15;95783.03;4964539;28;20029;-59
2022/12/07 00:36:25;;;;;;;7.00;4.00;;;21.90;45.40;;;20.28;49.14;95791.03;4962362;28;20037;-59
2022/12/07 00:38:51;;;;;;;8.75;4.20;;;21.90;45.50;;;20.28;49.30;95782.22;4964306;28;20037;-60
2022/12/07 00:41:19;;;;;;;8.13;4.20;;;21.90;45.50;;;20.29;49.49;95783.81;4930296;28;20352;-60
2022/12/07 00:43:46;;;;;;;6.63;4.03;;;22.00;45.60;;;20.29;49.31;95778.47;4946714;28;20029;-60
2022/12/07 00:46:12;;;;;;;7.97;4.30;;;21.90;45.50;;;20.30;48.77;95780.09;4964916;28;20060;-61
2022/12/07 00:48:38;;;;;;;7.80;4.78;;;21.90;45.10;;;20.29;49.43;95786.50;4962361;28;20029;-60
2022/12/07 00:51:04;;;;;;;7.07;4.10;;;21.90;45.40;;;20.26;48.79;95784.34;4927196;28;20263;-59
2022/12/07 00:53:30;;;;;;;7.32;4.47;;;21.90;45.50;;;20.26;49.55;95792.34;4963998;28;20056;-59
2022/12/07 00:55:57;;;;;;;8.45;4.35;;;21.90;45.60;;;20.27;49.29;95776.06;4963230;28;20025;-59
2022/12/07 00:58:23;;;;;;;8.45;4.43;;;21.90;45.50;;;20.27;49.07;95770.72;4947400;28;20033;-59
2022/12/07 01:00:49;;;;;;;8.95;4.28;;;21.90;45.60;;;20.28;49.01;95776.88;4946086;28;20041;-59
2022/12/07 01:03:16;;;;;;;5.93;4.05;;;21.90;45.60;;;20.27;49.25;95783.28;4964675;28;20029;-59
2022/12/07 01:05:51;;;;;;;7.28;4.15;;;21.90;45.60;;;20.29;50.53;95781.16;4957746;28;20093;-61
2022/12/07 01:08:17;;;;;;;7.70;4.40;;;21.80;45.70;;;20.27;48.69;95780.63;4963655;28;20040;-59
2022/12/07 01:10:43;;;;;;;9.13;4.15;;;21.90;45.60;;;20.26;48.96;95773.66;4950746;28;20259;-59
2022/12/07 01:13:08;;;;;;;6.50;4.25;;;21.90;44.80;;;20.26;48.90;95773.66;4965726;28;20472;-59
2022/12/07 01:15:34;;;;;;;7.38;4.57;;;21.90;45.70;;;20.25;50.00;95775.53;4968349;28;20041;-59
2022/12/07 01:18:00;;;;;;;8.45;4.50;;;21.90;45.50;;;20.27;49.93;95786.75;4950603;28;20352;-59
2022/12/07 01:20:26;;;;;;;6.20;3.97;;;21.90;45.60;;;20.25;48.63;95780.06;4948882;28;20041;-59
2022/12/07 01:22:52;;;;;;;9.73;4.75;;;21.90;45.60;;;20.29;50.10;95786.50;4951953;28;20369;-59
2022/12/07 01:25:18;;;;;;;10.25;4.72;;;21.90;45.50;;;20.21;48.61;95776.31;4946556;28;20360;-59
2022/12/07 01:27:44;;;;;;;9.20;4.40;;;21.90;45.20;;;20.28;49.39;95795.56;4930657;28;20044;-59
2022/12/07 01:30:10;;;;;;;6.80;4.38;;;21.90;45.60;;;20.27;48.55;95789.44;4965723;28;20297;-59
2022/12/07 01:32:36;;;;;;;6.72;4.13;;;21.90;45.50;;;20.25;49.83;95780.06;4948253;28;20057;-59
2022/12/07 01:35:02;;;;;;;7.32;3.92;;;21.90;45.50;;;20.28;49.59;95785.69;4964200;28;20399;-59
2022/12/07 01:37:33;;;;;;;7.22;4.10;;;21.90;45.50;;;20.28;49.88;95779.56;4947790;28;20033;-59
2022/12/07 01:39:59;;;;;;;6.28;4.20;;;21.90;45.50;;;20.28;50.05;95782.22;4948415;28;20037;-59
2022/12/07 01:42:24;;;;;;;8.43;4.55;;;21.90;45.50;;;20.28;50.26;95776.88;4967666;28;20041;-60
2022/12/07 01:45:18;;;;;;;6.30;3.80;;;22.00;45.50;;;20.29;50.78;95794.50;4963771;28;20307;-59
2022/12/07 01:47:52;;;;;;;7.38;3.92;;;21.90;45.60;;;20.28;50.09;95790.22;4967814;28;20595;-59
2022/12/07 01:50:18;;;;;;;7.43;3.90;;;21.80;45.40;;;20.27;49.40;95780.63;4964581;28;20112;-59
2022/12/07 01:52:44;;;;;;;7.90;4.57;;;21.80;45.70;;;20.27;49.56;95780.63;4948892;28;20051;-60
2022/12/07 01:55:13;;;;;;;8.40;3.92;;;21.90;45.60;;;20.24;50.48;95775.78;4963956;28;20033;-60
2022/12/07 01:57:47;;;;;;;5.68;3.75;;;21.90;45.60;;;20.27;51.40;95785.97;4949343;28;20080;-59
2022/12/07 02:00:13;;;;;;;6.90;4.60;;;21.90;45.60;;;20.27;49.07;95769.94;4947038;28;20671;-60
2022/12/07 02:03:09;;;;;;;6.22;3.97;;;21.80;45.60;;;20.28;50.82;95780.34;4964641;28;20046;-59
2022/12/07 02:05:35;;;;;;;4.70;3.15;;;21.90;45.50;;;20.27;50.60;95772.59;4944248;28;20034;-59
2022/12/07 02:08:01;;;;;;;6.57;4.00;;;21.90;45.40;;;20.27;49.53;95775.28;4973470;23;20383;-61
2022/12/07 02:10:29;;;;;;;7.43;4.20;;;21.90;45.50;;;20.27;49.74;95776.06;4851354;28;20429;-61
2022/12/07 02:13:21;;;;;;;6.53;3.70;;;21.90;45.50;;;20.28;51.39;95779.56;4860964;28;20365;-61
2022/12/07 02:16:34;;;;;;;5.88;4.13;;;21.90;45.40;;;20.27;51.13;95773.41;4891600;28;20455;-61
2022/12/07 02:19:51;;;;;;;6.25;4.13;;;21.90;45.50;;;20.24;51.26;95770.44;4860921;28;20593;-60
2022/12/07 02:23:01;;;;;;;6.85;4.28;;;21.90;45.50;;;20.26;51.48;95773.66;4842091;28;20444;-60
2022/12/07 02:26:06;;;;;;;7.93;4.00;;;22.00;45.40;;;20.25;50.77;95772.06;4891461;28;20494;-60
2022/12/07 02:29:11;;;;;;;5.93;3.95;;;21.90;45.40;;;20.24;50.54;95773.13;4897999;28;20370;-60
2022/12/07 02:31:44;;;;;;;6.72;4.00;;;21.90;45.40;;;20.23;51.30;95768.84;4849502;28;20389;-61
2022/12/07 02:34:29;;;;;;;6.53;3.95;;;21.90;45.50;;;20.23;51.11;95768.84;4847313;28;20814;-60
2022/12/07 02:37:03;;;;;;;6.25;3.72;;;21.90;45.40;;;20.23;50.30;95769.66;4873468;28;20042;-60
2022/12/07 02:39:51;;;;;;;6.38;4.15;;;21.80;45.40;;;20.23;50.99;95768.84;4851555;28;20321;-60
2022/12/07 02:42:21;;;;;;;6.25;3.65;;;21.90;45.40;;;20.23;50.12;95768.84;4855694;28;20408;-62
2022/12/07 02:44:48;;;;;;;8.90;3.85;;;21.80;45.50;;;20.23;50.70;95768.84;4849107;28;20562;-60
2022/12/07 02:47:15;;;;;;;4.97;3.42;;;21.90;45.40;;;20.23;50.98;95764.31;4855911;28;20410;-60
2022/12/07 02:49:42;;;;;;;5.25;3.67;;;21.90;45.30;;;20.22;49.57;95762.69;4858347;28;20501;-60
2022/12/07 02:52:08;;;;;;;7.40;3.67;;;21.90;45.40;;;20.23;50.18;95763.50;4862960;28;20298;-61
2022/12/07 02:54:34;;;;;;;6.60;3.90;;;21.90;45.40;;;20.22;49.69;95759.22;4831043;28;20377;-60
2022/12/07 02:57:46;;;;;;;8.13;3.63;;;21.90;45.40;;;20.24;50.82;95759.75;4846608;28;20357;-60
2022/12/07 03:00:18;;;;;;;7.10;3.58;;;21.90;45.50;;;20.21;51.09;95760.28;4849378;28;20183;-60
2022/12/07 03:02:54;;;;;;;6.30;3.95;;;21.90;45.40;;;20.22;50.42;95761.88;4830769;28;20359;-61
2022/12/07 03:05:38;;;;;;;7.03;3.75;;;21.90;45.50;;;20.23;51.16;95760.81;4844886;28;20357;-61
2022/12/07 03:08:15;;;;;;;6.15;3.72;;;21.90;45.40;;;20.27;51.21;95769.94;4864720;28;20364;-61
2022/12/07 03:11:06;;;;;;;6.15;3.72;;;22.00;45.30;;;20.31;51.83;95763.00;4863075;28;20463;-61
2022/12/07 03:13:42;;;;;;;7.50;3.50;;;21.90;45.40;;;20.31;50.09;95758.47;4829167;28;20451;-61
2022/12/07 03:16:24;;;;;;;5.93;3.90;;;22.00;45.30;;;20.36;51.13;95753.16;4847880;28;20822;-60
2022/12/07 03:19:02;;;;;;;5.40;3.38;;;22.00;45.30;;;20.37;50.94;95757.44;4848118;28;20362;-60
2022/12/07 03:21:34;;;;;;;6.97;3.45;;;22.00;45.30;;;20.40;50.50;95758.78;4846965;28;20434;-60
2022/12/07 03:24:04;;;;;;;5.32;3.35;;;22.00;45.30;;;20.43;50.50;95745.75;4844984;28;20370;-61
2022/12/07 03:26:37;;;;;;;7.20;3.75;;;22.00;45.30;;;20.47;51.04;95756.72;4830076;28;20425;-61
2022/12/07 03:29:11;;;;;;;5.97;3.42;;;22.10;45.40;;;20.50;51.11;95753.53;4864490;28;20384;-60
2022/12/07 03:31:44;;;;;;;6.72;3.75;;;22.10;45.90;;;20.53;51.88;95750.34;4845678;28;20429;-60
2022/12/07 03:34:32;;;;;;;6.40;3.75;;;22.10;45.80;;;20.56;51.47;95757.81;4863449;28;20363;-61
2022/12/07 03:37:18;;;;;;;9.02;4.00;;;22.10;45.70;;;20.58;51.90;95750.34;4850597;28;20371;-60
2022/12/07 03:40:16;;;;;;;6.10;3.70;;;22.20;45.80;;;20.61;52.04;95765.88;4849734;28;20385;-62
2022/12/07 03:42:42;;;;;;;6.53;3.95;;;22.10;45.90;;;20.60;51.28;95748.25;4835865;28;20257;-62
2022/12/07 03:45:08;;;;;;;6.65;3.33;;;22.20;46.00;;;20.63;52.06;95747.72;4837781;28;20378;-61
2022/12/07 03:47:55;;;;;;;12.13;3.28;;;22.20;46.50;;;20.68;53.27;95758.44;4828181;28;20448;-61
2022/12/07 03:50:43;;;;;;;6.10;3.38;;;22.20;47.20;;;20.70;53.14;95758.97;4831696;28;20293;-63
2022/12/07 03:53:15;;;;;;;7.95;3.97;;;22.20;47.50;;;20.71;53.19;95765.13;4856653;28;20388;-62
2022/12/07 03:55:43;;;;;;;6.82;3.53;;;22.20;47.00;;;20.71;52.22;95744.53;4849133;28;20341;-61
2022/12/07 03:58:12;;;;;;;5.80;3.60;;;22.20;47.20;;;20.74;53.14;95754.72;4849729;28;20425;-61
2022/12/07 04:00:38;;;;;;;5.13;3.22;;;22.20;47.10;;;20.74;52.92;95749.34;4848882;28;20421;-61
2022/12/07 04:03:04;;;;;;;5.07;3.47;;;22.20;47.40;;;20.76;52.72;95747.22;4848300;28;20514;-62
2022/12/07 04:05:30;;;;;;;5.15;3.70;;;22.20;47.10;;;20.76;52.25;95747.22;4848291;28;20315;-62
2022/12/07 04:07:56;;;;;;;5.20;3.05;;;22.30;47.10;;;20.78;53.05;95746.97;4832233;28;20450;-62
2022/12/07 04:10:22;;;;;;;8.32;3.55;;;22.20;47.50;;;20.78;52.78;95749.63;4849663;28;20366;-63
2022/12/07 04:12:48;;;;;;;9.02;3.20;;;22.30;47.10;;;20.80;52.05;95744.81;4848696;28;20335;-61
2022/12/07 04:15:14;;;;;;;7.50;3.40;;;22.30;47.00;;;20.80;52.69;95752.84;4830891;28;25752;-61
2022/12/07 04:17:40;;;;;;;5.13;3.38;;;22.30;47.20;;;20.81;52.66;95751.78;4832397;28;20387;-61
2022/12/07 04:20:07;;;;;;;16.17;5.13;;;22.30;47.50;;;20.80;55.08;95753.66;4832477;28;20390;-61
2022/12/07 04:22:33;;;;;;;20.95;6.18;;;22.40;51.80;;;20.84;58.00;95751.28;4833462;28;20456;-61
2022/12/07 04:24:59;;;;;;;19.35;5.63;;;22.50;53.60;;;20.88;59.94;95754.22;4831084;28;20547;-61
2022/12/07 04:27:25;;;;;;;19.13;5.25;;;22.50;52.70;;;20.89;60.24;95755.84;4840012;28;20387;-62
2022/12/07 04:29:52;;;;;;;35.67;8.88;;;22.50;53.10;;;20.94;67.34;95758.53;4835856;28;20344;-61
2022/12/07 04:32:18;;;;;;;28.58;6.78;;;22.60;66.00;;;20.99;68.93;95755.88;4832336;28;20416;-61
2022/12/07 04:34:44;;;;;;;46.67;8.20;;;22.60;66.50;;;21.05;69.49;95757.50;4848583;28;20756;-60
2022/12/07 04:37:10;;;;;;;25.65;6.40;;;22.70;62.20;;;21.07;68.88;95745.47;4866097;28;20446;-62
2022/12/07 04:39:36;;;;;;;33.85;5.97;;;22.70;59.20;;;21.08;66.26;95748.94;4867383;28;20217;-61
2022/12/07 04:42:03;;;;;;;25.40;5.68;;;22.70;57.40;;;21.07;65.89;95753.50;4867220;28;20272;-62
2022/12/07 04:44:29;;;;;;;22.38;5.38;;;22.70;56.20;;;21.07;65.56;95747.34;4907077;28;20046;-62
2022/12/07 04:46:55;;;;;;;13.18;4.85;;;22.70;56.50;;;21.06;63.12;95743.06;4939700;28;20133;-62
2022/12/07 04:49:20;;;;;;;22.92;4.97;;;22.70;54.70;;;21.05;63.47;95738.78;4970541;28;20133;-62
2022/12/07 04:51:46;;;;;;;12.32;4.72;;;22.70;55.00;;;21.03;62.27;95736.34;4971220;28;20394;-62
2022/12/07 04:54:13;;;;;;;20.80;5.10;;;22.70;54.40;;;21.01;61.68;95737.69;4951485;28;20035;-62
2022/12/07 04:56:39;;;;;;;13.07;4.78;;;22.60;54.30;;;20.99;60.52;95729.13;4968375;28;20026;-63
2022/12/07 04:59:05;;;;;;;15.68;4.82;;;22.60;53.00;;;20.98;61.69;95743.56;4935286;28;20030;-62
2022/12/07 05:01:31;;;;;;;18.85;4.65;;;22.60;53.80;;;20.97;61.23;95747.31;4936406;28;20094;-62
2022/12/07 05:03:57;;;;;;;17.42;4.47;;;22.60;53.30;;;20.95;61.19;95746.75;4968638;28;20055;-64
2022/12/07 05:06:22;;;;;;;11.88;4.40;;;22.60;53.40;;;20.93;61.44;95747.03;4952108;28;20138;-64
2022/12/07 05:08:48;;;;;;;14.15;4.53;;;22.60;54.00;;;20.92;61.62;95749.97;4983272;28;20034;-62
2022/12/07 05:13:59;;;;;;;9.95;4.53;;;22.60;53.80;;;20.87;62.08;95744.59;4981560;28;20042;-63
2022/12/07 05:16:24;;;;;;;13.40;4.50;;;22.50;54.10;;;20.86;61.24;95741.13;4984121;28;20402;-64
2022/12/07 05:18:50;;;;;;;11.75;4.18;;;22.50;53.30;;;20.85;61.06;95744.06;4982534;28;20031;-63
2022/12/07 05:21:16;;;;;;;13.15;3.95;;;22.60;53.60;;;20.84;59.82;95742.47;4983899;28;20039;-63
2022/12/07 05:23:42;;;;;;;10.05;3.97;;;22.60;52.90;;;20.82;59.63;95739.22;4967600;28;20041;-63
2022/12/07 05:26:07;;;;;;;12.93;4.30;;;22.60;53.20;;;20.80;60.30;95745.63;4951627;28;20805;-63
2022/12/07 05:28:33;;;;;;;10.20;3.72;;;22.50;52.10;;;20.78;60.14;95742.41;4983411;28;20038;-64
2022/12/07 05:30:59;;;;;;;10.40;4.00;;;22.50;52.60;;;20.75;59.62;95748.28;4950690;28;20042;-63
2022/12/07 05:33:25;;;;;;;10.07;4.10;;;22.40;51.20;;;20.73;59.06;95742.41;5000009;28;20201;-64
2022/12/07 05:35:50;;;;;;;15.50;4.50;;;22.50;51.90;;;20.70;58.49;95737.59;4992285;28;20405;-63
2022/12/07 05:38:16;;;;;;;10.80;4.03;;;22.40;51.50;;;20.70;58.76;95742.13;4981339;28;20037;-63
2022/12/07 05:40:42;;;;;;;8.88;4.10;;;22.50;51.50;;;20.69;57.33;95738.66;5005509;28;20048;-62
2022/12/07 05:43:08;;;;;;;9.90;3.80;;;22.40;51.40;;;20.66;57.92;95731.16;4973717;28;20110;-61
2022/12/07 05:45:33;;;;;;;8.27;4.13;;;22.40;51.10;;;20.67;56.64;95740.78;4970770;28;20367;-63
2022/12/07 05:47:59;;;;;;;9.30;4.13;;;22.30;51.00;;;20.66;57.38;95735.72;4953413;28;20022;-62
2022/12/07 05:50:25;;;;;;;9.40;3.70;;;22.40;50.70;;;20.65;57.56;95739.44;4983456;28;20133;-63
2022/12/07 05:52:51;;;;;;;9.35;4.15;;;22.30;50.30;;;20.60;56.94;95731.41;4966548;28;20459;-64
2022/12/07 05:55:16;;;;;;;8.18;3.95;;;22.30;50.60;;;20.61;55.85;95739.16;4967222;28;20059;-64
2022/12/07 05:59:22;;;;;;;9.93;4.03;;;22.30;50.80;;;20.60;56.63;95734.09;4950643;28;20039;-62
2022/12/07 06:00:31;;;;;;;9.32;3.50;;;22.30;50.60;;;20.58;56.58;95733.50;4967295;28;20043;-62
2022/12/07 06:02:57;;;;;;;7.45;3.40;;;22.40;49.80;;;20.55;56.13;95734.84;4983044;28;20113;-63
2022/12/07 06:05:22;;;;;;;9.35;3.92;;;22.30;49.90;;;20.56;56.57;95739.13;4951446;28;20437;-63
2022/12/07 06:07:48;;;;;;;9.88;3.38;;;22.30;50.00;;;20.55;57.60;95737.50;4982731;28;20496;-62
2022/12/07 06:10:14;;;;;;;6.47;3.40;;;22.30;49.60;;;20.52;55.93;95740.72;4965537;28;20909;-64
2022/12/07 06:12:42;;;;;;;12.52;3.80;;;22.30;49.60;;;20.53;56.28;95745.00;4951179;28;20063;-65
2022/12/07 06:15:09;;;;;;;6.72;3.38;;;22.30;49.50;;;20.51;56.17;95749.78;4966827;28;20069;-63
2022/12/07 06:17:35;;;;;;;6.05;3.58;;;22.30;49.70;;;20.50;55.60;95742.84;4950552;28;20038;-62
2022/12/07 06:20:01;;;;;;;6.43;3.65;;;22.20;49.50;;;20.49;55.41;95749.25;4967136;28;20034;-65
2022/12/07 06:22:27;;;;;;;12.38;3.72;;;22.20;49.90;;;20.48;55.11;95742.28;4967118;28;20558;-64
2022/12/07 06:24:53;;;;;;;5.50;3.17;;;22.20;49.50;;;20.47;55.71;95741.50;4967755;28;20070;-64
2022/12/07 06:27:19;;;;;;;6.15;3.53;;;22.20;49.80;;;20.45;55.26;95740.16;4966914;28;20109;-65
2022/12/07 06:29:44;;;;;;;7.70;3.90;;;22.20;49.50;;;20.46;55.05;95741.75;4950156;28;20062;-63
2022/12/07 06:32:11;;;;;;;8.32;3.22;;;22.20;49.60;;;20.45;54.83;95740.16;4950689;28;20130;-63
2022/12/07 06:34:36;;;;;;;6.15;3.20;;;22.20;49.50;;;20.45;54.45;95740.16;4950783;28;20098;-64
2022/12/07 06:37:03;;;;;;;7.97;3.85;;;22.20;49.30;;;20.45;54.88;95745.50;4958231;28;20050;-65
2022/12/07 06:39:29;;;;;;;6.20;3.17;;;22.10;49.40;;;20.43;54.69;95748.44;5003139;28;20056;-64
2022/12/07 06:41:55;;;;;;;6.05;3.28;;;22.10;49.30;;;20.42;55.00;95748.69;4989544;28;20037;-65
2022/12/07 06:44:21;;;;;;;7.03;3.53;;;22.10;49.20;;;20.43;54.11;95755.63;4989286;28;20061;-65
2022/12/07 06:46:47;;;;;;;6.53;3.47;;;22.10;49.20;;;20.42;55.61;95749.50;4989244;28;20120;-64
2022/12/07 06:49:13;;;;;;;6.00;3.03;;;22.10;49.10;;;20.42;54.37;95751.34;5004246;28;20034;-65
2022/12/07 06:51:41;;;;;;;5.80;3.10;;;22.10;48.90;;;20.40;53.92;95748.94;4988926;28;20022;-64
2022/12/07 06:54:11;;;;;;;4.78;2.90;;;22.10;48.30;;;20.42;55.34;95754.03;4989163;28;20109;-65
2022/12/07 06:56:37;;;;;;;7.00;3.15;;;22.10;48.90;;;20.39;54.66;95754.53;5005489;28;20682;-65
2022/12/07 06:59:03;;;;;;;6.20;3.28;;;22.10;48.70;;;20.39;55.28;95754.53;4987341;28;20065;-65
2022/12/07 07:01:29;;;;;;;6.47;3.03;;;22.10;48.70;;;20.38;54.16;95750.25;4988554;28;20468;-63
2022/12/07 07:03:55;;;;;;;5.80;3.20;;;22.10;48.70;;;20.39;54.65;95751.84;5005571;28;20029;-64
2022/12/07 07:06:20;;;;;;;8.13;3.22;;;22.10;48.70;;;20.38;54.92;95764.41;4989202;28;20073;-64
2022/12/07 07:08:46;;;;;;;6.40;2.92;;;22.10;48.70;;;20.38;55.11;95758.25;4988244;28;20147;-65
2022/12/07 07:11:12;;;;;;;5.45;2.90;;;22.10;48.60;;;20.37;55.18;95748.63;5005923;28;20590;-65
2022/12/07 07:13:38;;;;;;;4.90;3.10;;;22.10;48.40;;;20.38;55.33;95752.91;4988864;28;20445;-65
2022/12/07 07:16:04;;;;;;;6.22;2.88;;;22.10;48.60;;;20.37;54.33;95749.44;5005611;28;20357;-65
2022/12/07 07:18:30;;;;;;;6.22;3.15;;;22.10;48.30;;;20.38;54.32;95750.25;4988157;28;20048;-65
2022/12/07 07:20:56;;;;;;;5.10;3.22;;;22.10;48.20;;;20.37;53.57;95748.63;4988315;28;20505;-64
2022/12/07 07:23:22;;;;;;;5.25;2.70;;;22.10;48.30;;;20.36;53.82;95753.16;4988483;28;20036;-62
2022/12/07 07:25:47;;;;;;;4.15;2.70;;;22.10;48.20;;;20.36;54.61;95755.00;5004999;28;20034;-63
2022/12/07 07:28:14;;;;;;;4.28;2.97;;;22.10;48.10;;;20.35;53.47;95754.22;4971443;28;20536;-64
2022/12/07 07:30:39;;;;;;;4.63;2.72;;;22.10;48.20;;;20.36;53.61;95749.66;4988159;28;20046;-64
2022/12/07 07:33:05;;;;;;;5.80;2.80;;;22.10;48.00;;;20.35;54.11;95750.72;4971869;28;20034;-64
2022/12/07 07:35:32;;;;;;;5.55;3.00;;;22.10;48.00;;;20.36;54.37;95763.84;5000872;28;20034;-65
2022/12/07 07:37:58;;;;;;;5.68;2.63;;;22.10;48.10;;;20.36;53.60;95761.16;4979617;28;20053;-64
2022/12/07 07:40:25;;;;;;;4.97;2.70;;;22.10;47.70;;;20.36;54.29;95760.34;4988236;28;20034;-63
2022/12/07 07:42:51;;;;;;;4.28;2.38;;;22.10;48.00;;;20.34;54.01;95749.13;4988211;28;20034;-64
2022/12/07 07:45:18;;;;;;;4.25;2.83;;;22.10;47.90;;;20.35;54.94;95756.88;4988099;28;20096;-64
2022/12/07 07:47:44;;;;;;;4.38;3.00;;;22.10;47.90;;;20.34;53.93;95765.97;4986991;28;20050;-64
2022/12/07 07:50:10;;;;;;;4.28;2.90;;;22.10;47.70;;;20.34;53.62;95759.81;5020786;28;20073;-64
2022/12/07 07:52:35;;;;;;;3.58;2.45;;;22.10;47.60;;;20.34;53.19;95754.47;4971673;28;20052;-64
2022/12/07 07:55:01;;;;;;;5.30;2.97;;;22.10;47.50;;;20.34;53.83;95749.13;4987696;28;20034;-63
2022/12/07 07:57:27;;;;;;;3.90;2.33;;;22.10;47.50;;;20.34;54.40;95762.47;4987893;28;20485;-62
2022/12/07 07:59:53;;;;;;;3.85;2.10;;;22.00;47.50;;;20.33;54.13;95763.53;4987428;28;20030;-64
2022/12/07 08:02:19;;;;;;;4.00;2.75;;;22.10;47.50;;;20.33;53.28;95760.88;5004446;28;20478;-63
2022/12/07 08:04:45;;;;;;;4.18;2.67;;;22.00;47.60;;;20.35;53.61;95766.75;4988115;28;20084;-65
2022/12/07 08:07:11;;;;;;;5.13;3.33;;;22.10;47.50;;;20.33;52.85;95764.34;5003889;28;20049;-64
2022/12/07 08:09:37;;;;;;;3.72;2.67;;;22.00;46.90;;;20.33;52.58;95768.88;5002614;28;20034;-62
2022/12/07 08:12:03;;;;;;;3.83;2.70;;;22.10;47.10;;;20.33;51.90;95766.22;4987920;28;20034;-64
2022/12/07 08:14:30;;;;;;;5.10;4.00;;;22.00;47.40;;;20.32;50.91;95772.63;4988055;28;20045;-64
2022/12/07 08:16:56;;;;;;;4.95;3.17;;;22.00;46.50;;;20.32;51.47;95777.97;5003835;28;20042;-64
2022/12/07 08:19:21;;;;;;;4.35;2.97;;;22.00;46.80;;;20.31;51.87;95782.50;4989577;28;20026;-65
2022/12/07 08:21:47;;;;;;;3.50;2.60;;;22.00;47.10;;;20.31;52.23;95779.84;5009211;28;20037;-64
2022/12/07 08:24:13;;;;;;;4.47;3.03;;;22.10;46.90;;;20.31;51.40;95781.69;4993015;28;20042;-64
2022/12/07 08:26:39;;;;;;;4.05;2.72;;;22.00;46.20;;;20.32;51.96;95777.97;5010284;28;20485;-62
2022/12/07 08:29:05;;;;;;;3.97;2.83;;;22.00;47.00;;;20.30;51.48;95782.75;5008009;28;20045;-63
2022/12/07 08:31:31;;;;;;;3.90;3.00;;;22.00;47.00;;;20.30;51.50;95780.91;4992334;28;20046;-64
2022/12/07 08:33:57;;;;;;;3.88;2.65;;;22.00;46.80;;;20.32;52.04;95799.34;4992808;28;20045;-62
2022/12/07 08:36:22;;;;;;;4.15;2.28;;;22.10;46.70;;;20.31;51.47;95790.53;4992959;28;20029;-64
2022/12/07 08:38:48;;;;;;;4.00;2.47;;;22.00;46.70;;;20.31;51.75;95795.06;4991943;28;20399;-64
2022/12/07 08:41:14;;;;;;;4.32;3.25;;;22.00;46.70;;;20.31;51.45;95792.38;4992168;28;20097;-63
2022/12/07 08:43:40;;;;;;;3.95;2.45;;;21.90;46.60;;;20.31;51.75;95792.38;4992729;28;20026;-64
2022/12/07 08:46:13;;;;;;;3.80;2.65;;;22.00;46.80;;;20.30;52.36;95796.13;5010356;28;20054;-63
2022/12/07 08:48:48;;;;;;;4.25;2.80;;;22.00;46.60;;;20.31;53.16;95795.84;4991640;28;20126;-63
2022/12/07 08:51:13;;;;;;;3.83;2.50;;;22.00;46.70;;;20.31;52.02;95789.72;4992156;28;20041;-63
2022/12/07 08:53:39;;;;;;;4.28;2.63;;;22.00;46.70;;;20.30;52.08;95796.13;4992634;28;20030;-63
2022/12/07 08:56:05;;;;;;;4.88;3.03;;;22.00;46.60;;;20.32;51.29;95788.66;4976435;28;20056;-63
2022/12/07 08:58:33;;;;;;;3.40;2.40;;;22.00;46.40;;;20.32;51.53;95799.34;5008093;28;20022;-64
2022/12/07 09:00:59;;;;;;;4.30;3.30;;;22.00;46.70;;;20.31;51.23;95793.19;4991482;28;20449;-63
2022/12/07 09:03:24;;;;;;;4.38;3.15;;;22.00;46.20;;;20.30;50.60;95796.13;4992399;28;20046;-63
2022/12/07 09:05:50;;;;;;;3.85;2.90;;;22.00;46.30;;;20.30;50.94;95791.56;5010023;28;20022;-64
2022/12/07 09:08:16;;;;;;;3.45;2.58;;;22.00;46.60;;;20.32;50.92;95783.31;4991567;28;20065;-63
2022/12/07 09:10:42;;;;;;;3.65;2.95;;;22.00;46.60;;;20.31;51.04;95787.03;4992346;28;20060;-64
2022/12/07 09:13:07;;;;;;;3.75;2.65;;;22.00;46.40;;;20.32;51.11;95791.31;5007964;28;20621;-64
2022/12/07 09:15:33;;;;;;;3.30;2.85;;;22.00;46.60;;;20.32;50.84;95794.78;5008905;28;20125;-64
2022/12/07 09:17:59;;;;;;;3.65;2.40;;;22.00;46.20;;;20.33;51.45;95790.25;4991592;28;20042;-63
2022/12/07 09:20:25;;;;;;;3.85;3.00;;;22.00;46.50;;;20.32;51.56;95794.00;5008622;28;20060;-63
2022/12/07 09:22:50;;;;;;;3.92;2.38;;;22.00;46.40;;;20.33;50.86;95791.06;4995637;28;20113;-63
2022/12/07 09:25:16;;;;;;;3.67;3.08;;;22.00;46.20;;;20.34;50.41;95791.88;5012063;28;20046;-63
2022/12/07 09:27:42;;;;;;;3.03;2.38;;;22.00;46.30;;;20.32;50.84;95785.97;4994912;28;20030;-63
2022/12/07 09:30:08;;;;;;;3.72;2.60;;;22.00;46.30;;;20.33;50.82;95793.72;5012318;28;20038;-63
2022/12/07 09:32:33;;;;;;;3.22;2.28;;;22.00;46.20;;;20.32;50.91;95784.13;4995743;28;20421;-63
2022/12/07 09:34:59;;;;;;;3.45;2.15;;;22.00;46.40;;;20.33;50.74;95792.94;4995327;28;20058;-63
2022/12/07 09:37:25;;;;;;;3.55;2.55;;;22.00;46.30;;;20.33;50.75;95784.91;4995810;28;20045;-63
2022/12/07 09:39:50;;;;;;;2.42;2.10;;;22.00;46.20;;;20.33;50.67;95785.72;4995064;28;20167;-63
2022/12/07 09:42:37;;;;;;;3.40;2.45;;;22.00;46.20;;;20.35;52.26;95794.28;5012180;28;20050;-63
2022/12/07 09:45:06;;;;;;;2.72;1.98;;;22.00;46.30;;;20.35;51.01;95788.13;4995211;28;20041;-63
2022/12/07 09:47:33;;;;;;;3.35;2.78;;;22.00;46.20;;;20.33;51.28;95783.03;4978621;28;20022;-62
2022/12/07 09:50:06;;;;;;;4.53;2.60;;;22.00;46.20;;;20.35;52.09;95782.78;4995445;28;20108;-63
2022/12/07 09:52:32;;;;;;;3.75;2.67;;;22.00;46.00;;;20.33;50.92;95779.56;4995399;28;20030;-63
2022/12/07 09:54:57;;;;;;;4.15;2.42;;;22.00;46.20;;;20.34;50.67;95773.16;5011525;28;20109;-64
2022/12/07 09:57:34;;;;;;;3.65;2.67;;;22.00;46.10;;;20.36;51.57;95773.72;5011772;28;20509;-62
2022/12/07 10:00:04;;;;;;;3.80;2.67;;;22.00;46.00;;;20.35;50.62;95772.09;4995602;28;20022;-63
2022/12/07 10:02:41;;;;;;;3.45;2.38;;;22.00;46.00;;;20.36;51.07;95779.84;4978914;28;20037;-63
2022/12/07 10:05:12;;;;;;;3.65;2.63;;;22.00;46.00;;;20.34;50.96;95778.50;5011205;28;20076;-63
2022/12/07 10:07:38;;;;;;;3.60;2.55;;;22.00;45.80;;;20.34;49.60;95771.31;4978083;28;20057;-61
2022/12/07 10:10:15;;;;;;;2.78;2.22;;;22.10;46.10;;;20.35;50.67;95777.44;5011579;28;20053;-63
2022/12/07 10:13:15;;;;;;;3.50;2.45;;;22.00;45.70;;;20.37;51.26;95775.34;5027770;28;20038;-63
2022/12/07 10:16:01;;;;;;;3.33;2.78;;;22.00;45.60;;;20.36;50.88;95771.03;4981618;28;20093;-64
2022/12/07 10:18:36;;;;;;;3.65;3.17;;;22.00;45.90;;;20.37;50.71;95775.34;4994025;28;20510;-63
2022/12/07 10:21:08;;;;;;;3.60;2.70;;;22.00;45.90;;;20.35;50.32;95772.09;5010826;28;20041;-63
2022/12/07 10:23:36;;;;;;;4.07;2.08;;;22.00;45.30;;;20.31;49.67;95763.81;5012539;28;20026;-63
2022/12/07 10:26:35;;;;;;;2.70;2.00;;;21.90;45.80;;;20.34;51.27;95771.31;4994725;28;20489;-63
2022/12/07 10:29:44;;;;;;;3.30;2.22;;;22.00;45.80;;;20.36;51.15;95765.69;4971569;28;20038;-63
2022/12/07 10:32:16;;;;;;;3.38;2.42;;;22.00;45.70;;;20.36;51.10;95763.03;5008194;28;20080;-63